Glen Ellen, California
Current Conditions -  °F | °C
As of 11:55 PM on Thursday 23 Oct 2014 (Local Time) from KO69 Reporting Station
Scattered Clouds Scattered Clouds  
Wind Chill: 52°   Ceiling: Unl
Heat Index: 52°   Visibility: 10mi
Dew Point: 52°   Wind: 0mph
Humidity: 100%   Direction: NA
Pressure: 30.01"   Gusts: NA
Location:  38.36°N, 122.53°W
Report Text: KO69 240655Z AUTO 00000KT 10SM SCT020 11/11 A3001 RMK AO1
Loading
Personal Weather Stations






























Interactive Weather Map
Tropical Storm Tracking
New forecast layout! Learn more

10-Day Weather Forecast

Advertisements
Track Severe Weather on mobile